Time;durP1;ratioP1;P1;durP2;ratioP2;P2;SDS_P1;SDS_P2;PMS_P1;PMS_P2;Temp;Humidity;BMP_temperature;BMP_pressure;BME280_temperature;BME280_humidity;BME280_pressure;Samples;Min_cycle;Max_cycle;Signal;HPM_P1;HPM_P2
2023/03/06 00:01:47;;;;;;;57.80;21.70;;;;;;;2.73;100.00;100962.34;5223561;28;20017;-76
2023/03/06 00:04:18;;;;;;;56.88;23.77;;;;;;;2.75;100.00;100959.59;5205715;28;20029;-76
2023/03/06 00:06:48;;;;;;;58.17;23.77;;;;;;;2.74;100.00;100942.00;5223367;28;20020;-75
2023/03/06 00:09:19;;;;;;;50.50;22.38;;;;;;;2.75;100.00;100941.88;5223609;28;20025;-76
2023/03/06 00:11:49;;;;;;;60.25;23.88;;;;;;;2.74;100.00;100937.56;5219386;28;20028;-76
2023/03/06 00:14:20;;;;;;;56.78;22.23;;;;;;;2.72;100.00;100936.84;5223532;28;20035;-76
2023/03/06 00:16:54;;;;;;;61.80;22.73;;;;;;;2.72;100.00;100936.00;5204707;28;20112;-76
2023/03/06 00:19:26;;;;;;;56.13;22.45;;;;;;;2.72;100.00;100934.19;5223852;28;20033;-75
2023/03/06 00:21:56;;;;;;;55.13;22.70;;;;;;;2.74;100.00;100932.25;5223338;28;20025;-76
2023/03/06 00:24:27;;;;;;;65.50;24.23;;;;;;;2.74;100.00;100931.41;5223736;28;20028;-76
2023/03/06 00:26:57;;;;;;;65.22;25.10;;;;;;;2.76;100.00;100934.78;5222612;28;20025;-75
2023/03/06 00:29:28;;;;;;;52.15;22.13;;;;;;;2.76;100.00;100926.81;5205780;28;20082;-76
2023/03/06 00:31:58;;;;;;;59.70;23.88;;;;;;;2.76;100.00;100932.13;5223335;28;20025;-76
2023/03/06 00:34:29;;;;;;;57.92;23.80;;;;;;;2.79;100.00;100932.75;5227641;28;20052;-76
2023/03/06 00:36:59;;;;;;;58.90;26.05;;;;;;;2.79;100.00;100927.47;5209513;28;20021;-75
2023/03/06 00:39:30;;;;;;;57.10;23.25;;;;;;;2.76;100.00;100925.06;5209155;28;20020;-76
2023/03/06 00:42:00;;;;;;;63.28;23.73;;;;;;;2.79;100.00;100914.22;5227626;28;20474;-76
2023/03/06 00:44:31;;;;;;;66.05;24.67;;;;;;;2.77;100.00;100921.44;5228150;28;20088;-76
2023/03/06 00:47:01;;;;;;;74.32;26.77;;;;;;;2.76;100.00;100916.22;5211002;28;20029;-75
2023/03/06 00:49:32;;;;;;;59.30;23.73;;;;;;;2.79;100.00;100922.16;5209750;28;20144;-75
2023/03/06 00:52:03;;;;;;;59.70;24.67;;;;;;;2.76;100.00;100913.59;5227138;28;20102;-75
2023/03/06 00:54:33;;;;;;;59.53;24.45;;;;;;;2.74;100.00;100911.06;5227457;28;20029;-75
2023/03/06 00:57:04;;;;;;;63.78;24.52;;;;;;;2.74;100.00;100910.22;5209028;28;20408;-76
2023/03/06 00:59:34;;;;;;;59.95;24.63;;;;;;;2.72;100.00;100907.69;5226823;28;20039;-75
2023/03/06 01:02:05;;;;;;;62.92;25.25;;;;;;;2.72;100.00;100907.69;5227196;28;20366;-76
2023/03/06 01:04:36;;;;;;;65.03;24.90;;;;;;;2.72;100.00;100907.69;5226912;28;20161;-75
2023/03/06 01:07:06;;;;;;;68.22;26.90;;;;;;;2.69;100.00;100902.59;5226379;28;20027;-75
2023/03/06 01:09:37;;;;;;;62.80;25.30;;;;;;;2.69;100.00;100907.06;5226807;28;20025;-75
2023/03/06 01:12:08;;;;;;;65.47;24.38;;;;;;;2.71;100.00;100900.72;5223098;28;20033;-76
2023/03/06 01:14:38;;;;;;;65.05;24.95;;;;;;;2.70;100.00;100906.09;5209424;28;20112;-76
2023/03/06 01:17:10;;;;;;;67.32;26.58;;;;;;;2.68;100.00;100905.38;5225916;28;20082;-76
2023/03/06 01:19:41;;;;;;;66.30;25.15;;;;;;;2.67;100.00;100898.41;5226535;28;20021;-76
2023/03/06 01:22:11;;;;;;;66.68;24.67;;;;;;;2.69;100.00;100899.97;5226513;28;20036;-75
2023/03/06 01:24:41;;;;;;;65.00;25.45;;;;;;;2.69;100.00;100896.47;5226677;28;20017;-75
2023/03/06 01:27:12;;;;;;;63.53;26.08;;;;;;;2.68;100.00;100895.63;5225953;28;20086;-76
2023/03/06 01:29:42;;;;;;;69.38;24.80;;;;;;;2.68;100.00;100894.78;5226166;28;20088;-75
2023/03/06 01:32:13;;;;;;;58.75;24.60;;;;;;;2.71;100.00;100895.41;5226316;28;20363;-76
2023/03/06 01:34:43;;;;;;;61.22;25.35;;;;;;;2.72;100.00;100886.50;5226148;28;20478;-76
2023/03/06 01:37:14;;;;;;;64.55;26.30;;;;;;;2.71;100.00;100882.16;5225918;28;20021;-73
2023/03/06 01:39:45;;;;;;;70.20;26.08;;;;;;;2.68;100.00;100877.09;5225767;28;20029;-74
2023/03/06 01:42:15;;;;;;;67.50;26.05;;;;;;;2.66;100.00;100871.06;5226412;28;20094;-74
2023/03/06 01:44:56;;;;;;;68.50;26.63;;;;;;;2.62;100.00;100872.25;5225385;28;20477;-74
2023/03/06 01:47:27;;;;;;;64.68;25.45;;;;;;;2.59;100.00;100865.38;5225694;28;20402;-73
2023/03/06 01:50:01;;;;;;;64.45;24.65;;;;;;;2.58;100.00;100866.31;5204197;28;20017;-76
2023/03/06 01:52:38;;;;;;;67.93;25.98;;;;;;;2.56;100.00;100862.97;5218561;28;20025;-74
2023/03/06 01:55:14;;;;;;;63.63;24.30;;;;;;;2.56;100.00;100864.75;5226076;28;20090;-74
2023/03/06 01:57:52;;;;;;;69.97;25.63;;;;;;;2.53;100.00;100865.81;5225306;28;20028;-75
2023/03/06 02:00:26;;;;;;;69.00;25.85;;;;;;;2.50;100.00;100859.91;5225896;28;20032;-74
2023/03/06 02:03:05;;;;;;;64.50;25.30;;;;;;;2.52;100.00;100868.59;5225921;28;20048;-74
2023/03/06 02:05:36;;;;;;;71.65;26.63;;;;;;;2.46;100.00;100861.09;5226037;28;20572;-76
2023/03/06 02:08:09;;;;;;;68.65;25.60;;;;;;;2.44;100.00;100860.38;5226001;28;20124;-76
2023/03/06 02:10:54;;;;;;;85.57;27.40;;;;;;;2.42;100.00;100864.94;5221072;28;20045;-76
2023/03/06 02:13:24;;;;;;;67.07;24.50;;;;;;;2.40;100.00;100853.59;5225670;28;20396;-74
2023/03/06 02:15:55;;;;;;;64.35;25.23;;;;;;;2.38;100.00;100844.94;5225472;28;20027;-74
2023/03/06 02:18:26;;;;;;;64.95;25.65;;;;;;;2.36;100.00;100852.13;5225553;28;20029;-75
2023/03/06 02:21:02;;;;;;;68.75;26.80;;;;;;;2.33;100.00;100848.78;5225325;28;20485;-75
2023/03/06 02:23:52;;;;;;;63.55;25.10;;;;;;;2.36;100.00;100834.47;5225545;28;20145;-74
2023/03/06 02:26:25;;;;;;;65.13;25.85;;;;;;;2.36;100.00;100844.19;5225219;28;20029;-74
2023/03/06 02:28:58;;;;;;;68.68;25.48;;;;;;;2.33;100.00;100842.63;5207655;28;20036;-74
2023/03/06 02:31:31;;;;;;;70.05;25.65;;;;;;;2.30;100.00;100846.34;5225108;28;20056;-74
2023/03/06 02:34:04;;;;;;;71.13;25.52;;;;;;;2.29;100.00;100843.81;5207422;28;20497;-74
2023/03/06 02:36:41;;;;;;;69.43;25.60;;;;;;;2.29;100.00;100842.00;5225054;28;20029;-74
2023/03/06 02:39:13;;;;;;;69.05;25.50;;;;;;;2.31;100.00;100844.56;5225451;28;20536;-74
2023/03/06 02:41:44;;;;;;;72.40;25.92;;;;;;;2.33;100.00;100832.88;5225151;28;20025;-74
2023/03/06 02:44:14;;;;;;;70.65;25.25;;;;;;;2.33;100.00;100842.63;5207142;28;20022;-74
2023/03/06 02:46:45;;;;;;;72.05;27.10;;;;;;;2.31;100.00;100833.97;5221779;28;20024;-74
2023/03/06 02:49:16;;;;;;;68.13;25.65;;;;;;;2.31;100.00;100833.97;5212515;28;20033;-74
2023/03/06 02:51:46;;;;;;;65.88;25.05;;;;;;;2.29;100.00;100827.94;5224547;28;20063;-74
2023/03/06 02:54:21;;;;;;;79.32;27.65;;;;;;;2.27;100.00;100827.22;5223863;28;20021;-74
2023/03/06 02:56:52;;;;;;;65.10;26.77;;;;;;;2.23;100.00;100817.78;5222756;28;20108;-74
2023/03/06 02:59:23;;;;;;;75.82;28.67;;;;;;;2.19;100.00;100809.22;5222833;28;20556;-74
2023/03/06 03:01:53;;;;;;;66.80;26.58;;;;;;;2.15;100.00;100812.22;5224745;28;20444;-74
2023/03/06 03:04:24;;;;;;;66.72;26.27;;;;;;;2.09;100.00;100813.50;5223006;28;20107;-74
2023/03/06 03:06:54;;;;;;;72.80;27.20;;;;;;;2.03;100.00;100803.38;5223506;28;20025;-74
2023/03/06 03:09:25;;;;;;;73.25;27.98;;;;;;;2.01;100.00;100805.31;5222572;28;20021;-74
2023/03/06 03:11:55;;;;;;;78.75;26.85;;;;;;;1.99;100.00;100802.75;5220514;28;20021;-74
2023/03/06 03:14:26;;;;;;;72.95;27.50;;;;;;;2.00;100.00;100800.94;5223892;28;20025;-74
2023/03/06 03:16:56;;;;;;;73.10;27.00;;;;;;;1.99;100.00;100802.75;5222090;28;20017;-74
2023/03/06 03:19:27;;;;;;;68.85;26.23;;;;;;;2.00;100.00;100801.78;5223928;28;20031;-74
2023/03/06 03:21:58;;;;;;;74.32;27.67;;;;;;;1.99;100.00;100794.81;5222456;28;20027;-74
2023/03/06 03:24:28;;;;;;;81.28;27.40;;;;;;;1.98;100.00;100789.66;5206150;28;20024;-74
2023/03/06 03:26:59;;;;;;;73.22;28.35;;;;;;;2.01;100.00;100790.28;5222455;28;20021;-74
2023/03/06 03:29:29;;;;;;;71.82;28.17;;;;;;;2.03;100.00;100788.34;5223532;28;20029;-74
2023/03/06 03:32:00;;;;;;;73.63;27.38;;;;;;;2.03;100.00;100783.06;5205896;28;20083;-74
2023/03/06 03:34:30;;;;;;;77.80;28.08;;;;;;;2.03;100.00;100779.56;5223141;28;20033;-74
2023/03/06 03:37:01;;;;;;;74.32;27.25;;;;;;;1.99;100.00;100778.94;5222477;28;20025;-74
2023/03/06 03:39:31;;;;;;;76.40;27.75;;;;;;;1.99;100.00;100780.75;5223366;28;20032;-74
2023/03/06 03:42:02;;;;;;;74.95;27.60;;;;;;;1.98;100.00;100781.72;5223511;28;20028;-74
2023/03/06 03:44:32;;;;;;;79.10;26.52;;;;;;;2.00;100.00;100782.44;5214686;28;20029;-74
2023/03/06 03:47:04;;;;;;;80.65;29.50;;;;;;;2.01;100.00;100781.50;5201098;28;20033;-74
2023/03/06 03:49:34;;;;;;;79.13;28.60;;;;;;;2.04;100.00;100781.25;5206320;28;20079;-74
2023/03/06 03:52:05;;;;;;;68.50;26.83;;;;;;;2.06;100.00;100779.34;5223730;28;20025;-76
2023/03/06 03:54:35;;;;;;;79.75;27.83;;;;;;;2.06;100.00;100777.56;5224212;28;20105;-74
2023/03/06 03:57:06;;;;;;;76.60;28.88;;;;;;;2.07;100.00;100770.44;5223512;28;20420;-74
2023/03/06 03:59:36;;;;;;;75.82;28.23;;;;;;;2.06;100.00;100766.13;5223574;28;20021;-74
2023/03/06 04:02:07;;;;;;;77.05;28.40;;;;;;;2.04;100.00;100768.84;5223912;28;20044;-74
2023/03/06 04:04:37;;;;;;;70.97;26.65;;;;;;;2.06;100.00;100766.13;5206200;28;20025;-74
2023/03/06 04:07:08;;;;;;;71.53;26.33;;;;;;;2.02;100.00;100757.56;5223437;28;20031;-74
2023/03/06 04:09:39;;;;;;;74.15;26.25;;;;;;;1.99;100.00;100760.41;5228116;28;20032;-74
2023/03/06 04:12:09;;;;;;;80.15;25.52;;;;;;;1.96;100.00;100747.44;5227700;28;20104;-74
2023/03/06 04:14:39;;;;;;;76.18;26.08;;;;;;;1.91;100.00;100746.06;5227897;28;20029;-74
2023/03/06 04:17:10;;;;;;;75.10;26.85;;;;;;;1.85;100.00;100742.06;5227620;28;20021;-74
2023/03/06 04:19:40;;;;;;;68.78;25.45;;;;;;;1.76;100.00;100740.13;5227601;28;20587;-74
2023/03/06 04:22:11;;;;;;;67.38;24.48;;;;;;;1.69;100.00;100734.41;5210225;28;20023;-74
2023/03/06 04:24:41;;;;;;;63.65;24.83;;;;;;;1.64;100.00;100733.91;5227486;28;20567;-74
2023/03/06 04:27:12;;;;;;;71.60;26.98;;;;;;;1.58;100.00;100723.78;5227785;28;20025;-74
2023/03/06 04:29:43;;;;;;;70.07;26.67;;;;;;;1.49;100.00;100714.72;5209839;28;20020;-74
2023/03/06 04:32:13;;;;;;;80.57;28.75;;;;;;;1.39;100.00;100718.13;5210053;28;20059;-74
2023/03/06 04:34:44;;;;;;;68.10;25.92;;;;;;;1.33;100.00;100708.84;5227420;28;20060;-74
2023/03/06 04:37:20;;;;;;;85.45;26.50;;;;;;;1.27;100.00;100704.84;5227241;28;20459;-74
2023/03/06 04:39:50;;;;;;;72.35;25.38;;;;;;;1.24;100.00;100714.78;5209709;28;20079;-74
2023/03/06 04:42:21;;;;;;;78.20;26.98;;;;;;;1.18;100.00;100713.44;5209903;28;20423;-74
2023/03/06 04:44:51;;;;;;;72.03;25.63;;;;;;;1.10;100.00;100715.75;5215964;28;20022;-74
2023/03/06 04:47:22;;;;;;;81.93;27.30;;;;;;;1.09;100.00;100714.06;5206765;28;20025;-74
2023/03/06 04:49:52;;;;;;;83.05;27.00;;;;;;;1.07;100.00;100708.06;5227389;28;20555;-75
2023/03/06 04:52:23;;;;;;;78.65;27.30;;;;;;;1.08;100.00;100712.41;5227317;28;20031;-76
2023/03/06 04:54:53;;;;;;;80.72;28.52;;;;;;;1.11;100.00;100720.13;5227375;28;20392;-76
2023/03/06 04:57:24;;;;;;;86.90;33.08;;;;;;;1.16;100.00;100720.63;5227126;28;20446;-76
2023/03/06 04:59:54;;;;;;;91.20;35.15;;;;;;;1.27;100.00;100710.13;5226583;28;20017;-75
2023/03/06 05:02:25;;;;;;;110.22;47.40;;;;;;;1.32;100.00;100706.31;5227391;28;20025;-76
2023/03/06 05:04:55;;;;;;;99.63;40.50;;;;;;;1.35;100.00;100712.22;5226953;28;20413;-76
2023/03/06 05:07:26;;;;;;;96.20;36.60;;;;;;;1.39;100.00;100703.13;5209051;28;20079;-76
2023/03/06 05:09:56;;;;;;;94.38;34.70;;;;;;;1.43;100.00;100707.22;5226593;28;20028;-74
2023/03/06 05:12:27;;;;;;;90.88;33.08;;;;;;;1.47;100.00;100707.88;5226750;28;20090;-74
2023/03/06 05:14:57;;;;;;;94.03;33.53;;;;;;;1.49;100.00;100709.41;5226922;28;20028;-74
2023/03/06 05:17:27;;;;;;;92.45;34.50;;;;;;;1.51;100.00;100707.53;5208788;28;20630;-74
2023/03/06 05:19:58;;;;;;;90.57;33.63;;;;;;;1.54;100.00;100704.63;5225558;28;20021;-74
2023/03/06 05:22:28;;;;;;;86.53;31.02;;;;;;;1.59;100.00;100708.75;5226832;28;20107;-74
2023/03/06 05:24:59;;;;;;;85.50;30.50;;;;;;;1.61;100.00;100701.53;5226460;28;20421;-74
2023/03/06 05:27:30;;;;;;;86.80;32.40;;;;;;;1.64;100.00;100704.81;5226221;28;20025;-74
2023/03/06 05:30:00;;;;;;;91.47;30.73;;;;;;;1.66;100.00;100700.28;5226568;28;20104;-76
2023/03/06 05:32:31;;;;;;;79.18;28.60;;;;;;;1.67;100.00;100704.59;5226465;28;20038;-74
2023/03/06 05:35:02;;;;;;;74.50;29.30;;;;;;;1.65;100.00;100706.50;5226511;28;20473;-74
2023/03/06 05:37:33;;;;;;;80.10;29.95;;;;;;;1.64;100.00;100707.47;5225587;28;20021;-74
2023/03/06 05:40:08;;;;;;;87.75;31.08;;;;;;;1.59;100.00;100706.13;5208439;28;20068;-74
2023/03/06 05:42:38;;;;;;;91.25;31.90;;;;;;;1.52;100.00;100701.28;5226345;28;20066;-74
2023/03/06 05:45:09;;;;;;;91.65;33.42;;;;;;;1.43;100.00;100695.81;5213759;28;20487;-74
2023/03/06 05:47:40;;;;;;;100.85;35.50;;;;;;;1.34;100.00;100694.66;5225903;28;20389;-74
2023/03/06 05:50:12;;;;;;;289.65;108.28;;;;;;;1.23;100.00;100695.44;5225770;28;20032;-74
2023/03/06 05:52:43;;;;;;;140.23;48.17;;;;;;;1.13;100.00;100704.16;5226008;28;20025;-76
2023/03/06 05:55:14;;;;;;;208.80;69.10;;;;;;;1.06;100.00;100703.75;5226096;28;20033;-76
2023/03/06 05:57:44;;;;;;;446.85;157.43;;;;;;;0.97;100.00;100707.03;5208353;28;20036;-76
2023/03/06 06:00:16;;;;;;;139.32;51.75;;;;;;;0.91;100.00;100699.53;5225649;28;20033;-76
2023/03/06 06:02:47;;;;;;;169.98;67.30;;;;;;;0.86;100.00;100704.31;5226288;28;20064;-76
2023/03/06 06:05:17;;;;;;;178.98;67.25;;;;;;;0.79;100.00;100709.16;5226425;28;20448;-76
2023/03/06 06:07:48;;;;;;;158.27;57.60;;;;;;;0.72;100.00;100699.97;5210315;28;20024;-76
2023/03/06 06:10:18;;;;;;;103.72;35.88;;;;;;;0.68;100.00;100698.50;5226068;28;20021;-76
2023/03/06 06:12:49;;;;;;;92.38;33.65;;;;;;;0.65;100.00;100693.41;5207514;28;20028;-74
2023/03/06 06:15:19;;;;;;;113.32;38.58;;;;;;;0.59;100.00;100693.84;5187822;28;20025;-73
2023/03/06 06:17:50;;;;;;;128.68;42.40;;;;;;;0.55;100.00;100693.22;5219869;28;20036;-74
2023/03/06 06:20:21;;;;;;;130.43;44.78;;;;;;;0.54;100.00;100704.72;5225938;28;20029;-73
2023/03/06 06:22:51;;;;;;;142.32;47.88;;;;;;;0.53;100.00;100700.41;5225419;28;20032;-74
2023/03/06 06:25:21;;;;;;;574.65;223.20;;;;;;;0.54;100.00;100699.44;5225305;28;20021;-73
2023/03/06 06:27:55;;;;;;;241.30;88.93;;;;;;;0.54;100.00;100701.25;5225398;28;20024;-74
2023/03/06 06:30:25;;;;;;;149.23;53.25;;;;;;;0.52;100.00;100702.19;5225485;28;20032;-73
2023/03/06 06:32:55;;;;;;;139.77;51.30;;;;;;;0.51;100.00;100702.31;5225301;28;20033;-74
2023/03/06 06:35:26;;;;;;;121.57;44.20;;;;;;;0.55;100.00;100695.84;5225446;28;20029;-74
2023/03/06 06:37:56;;;;;;;117.28;41.08;;;;;;;0.56;100.00;100702.84;5224949;28;20612;-73
2023/03/06 06:40:28;;;;;;;109.43;40.20;;;;;;;0.58;100.00;100690.38;5224975;28;20560;-74
2023/03/06 06:42:58;;;;;;;100.18;34.63;;;;;;;0.59;100.00;100702.63;5225319;28;20025;-74
2023/03/06 06:45:29;;;;;;;98.43;33.38;;;;;;;0.60;100.00;100700.81;5212781;28;20028;-74
2023/03/06 06:47:59;;;;;;;114.22;38.40;;;;;;;0.62;100.00;100701.56;5224735;28;20025;-74
2023/03/06 06:50:30;;;;;;;124.07;42.45;;;;;;;0.65;100.00;100701.34;5206725;28;20082;-74
2023/03/06 06:53:00;;;;;;;103.38;38.17;;;;;;;0.68;100.00;100703.78;5224925;28;20028;-73
2023/03/06 06:55:31;;;;;;;107.35;39.45;;;;;;;0.68;100.00;100699.34;5207045;28;20021;-74
2023/03/06 06:58:01;;;;;;;110.35;39.20;;;;;;;0.65;100.00;100702.22;5207045;28;20151;-74
2023/03/06 07:00:32;;;;;;;99.35;34.20;;;;;;;0.63;100.00;100697.97;5206721;28;20040;-74
2023/03/06 07:03:02;;;;;;;104.25;35.30;;;;;;;0.59;100.00;100702.63;5224496;28;20081;-74
2023/03/06 07:05:33;;;;;;;98.45;35.25;;;;;;;0.60;100.00;100699.00;5224622;28;20032;-74
2023/03/06 07:08:04;;;;;;;111.00;37.90;;;;;;;0.63;100.00;100692.69;5206434;28;20024;-74
2023/03/06 07:10:39;;;;;;;101.97;34.40;;;;;;;0.71;100.00;100699.13;5224749;28;20039;-74
2023/03/06 07:13:09;;;;;;;105.30;35.88;;;;;;;0.83;100.00;100696.59;5224320;28;20024;-74
2023/03/06 07:15:39;;;;;;;111.57;33.65;;;;;;;1.00;100.00;100696.22;5206540;28;20539;-74
2023/03/06 07:18:10;;;;;;;103.85;35.05;;;;;;;1.14;100.00;100698.75;5224171;28;20451;-74
2023/03/06 07:20:40;;;;;;;101.68;33.83;;;;;;;1.28;100.00;100697.75;5190145;28;20021;-74
2023/03/06 07:23:12;;;;;;;100.15;34.00;;;;;;;1.43;100.00;100696.66;5224433;28;20025;-75
2023/03/06 07:25:42;;;;;;;98.30;33.92;;;;;;;1.59;100.00;100696.38;5224268;28;20052;-75
2023/03/06 07:28:13;;;;;;;100.93;35.42;;;;;;;1.67;100.00;100691.38;5223951;28;20453;-74
2023/03/06 07:30:43;;;;;;;96.53;35.35;;;;;;;1.78;100.00;100691.44;5206231;28;20417;-75
2023/03/06 07:33:14;;;;;;;93.03;32.63;;;;;;;1.89;100.00;100684.50;5224316;28;20100;-75
2023/03/06 07:35:45;;;;;;;114.65;39.08;;;;;;;1.96;100.00;100691.03;5206392;28;20504;-74
2023/03/06 07:38:16;;;;;;;222.68;71.95;;;;;;;1.98;100.00;100697.03;5223480;28;20016;-75
2023/03/06 07:40:49;;;;;;;258.48;81.90;;;;;;;2.07;100.00;100688.41;5206112;28;20575;-76
2023/03/06 07:43:20;;;;;;;222.38;72.55;;;;;;;2.10;100.00;100685.53;5205478;28;20017;-76
2023/03/06 07:45:55;;;;;;;150.15;52.55;;;;;;;2.15;100.00;100683.38;5210151;28;20021;-76
2023/03/06 07:48:26;;;;;;;134.07;47.50;;;;;;;2.27;100.00;100679.81;5223855;28;20098;-76
2023/03/06 07:50:59;;;;;;;134.85;49.33;;;;;;;2.41;100.00;100686.69;5223748;28;20323;-75
2023/03/06 07:53:31;;;;;;;126.10;45.75;;;;;;;2.52;100.00;100684.06;5206231;28;20744;-74
2023/03/06 07:56:07;;;;;;;108.57;40.63;;;;;;;2.63;100.00;100682.38;5223763;28;20171;-74
2023/03/06 07:58:39;;;;;;;102.05;38.17;;;;;;;2.84;100.00;100683.34;5223497;28;20029;-74
2023/03/06 08:01:13;;;;;;;89.10;32.80;;;;;;;2.94;100.00;100686.13;5223502;28;20130;-74
2023/03/06 08:03:44;;;;;;;90.55;34.47;;;;;;;3.09;100.00;100685.75;5223981;28;20107;-75
2023/03/06 08:06:18;;;;;;;80.93;29.38;;;;;;;3.12;100.00;100687.31;5206001;28;20094;-74
2023/03/06 08:08:50;;;;;;;75.90;30.13;;;;;;;3.23;100.00;100684.66;5210455;28;20037;-75
2023/03/06 08:11:22;;;;;;;82.18;30.73;;;;;;;3.30;100.00;100675.22;5223250;28;20037;-75
2023/03/06 08:13:54;;;;;;;76.25;28.35;;;;;;;3.32;100.00;100683.06;5223445;28;20021;-74
2023/03/06 08:16:28;;;;;;;80.63;30.33;;;;;;;3.37;100.00;100689.69;5205316;28;20028;-74
2023/03/06 08:18:58;;;;;;;70.03;27.63;;;;;;;3.36;100.00;100682.72;5206103;28;20025;-75
2023/03/06 08:21:29;;;;;;;83.95;28.30;;;;;;;3.43;100.00;100688.34;5205632;28;20036;-74
2023/03/06 08:23:59;;;;;;;78.47;30.55;;;;;;;3.51;100.00;100682.41;5205943;28;20033;-74
2023/03/06 08:26:31;;;;;;;78.03;32.20;;;;;;;3.60;100.00;100693.13;5222943;28;20020;-74
2023/03/06 08:29:02;;;;;;;81.80;35.85;;;;;;;3.73;100.00;100692.97;5205800;28;20036;-74
2023/03/06 08:31:34;;;;;;;97.93;36.10;;;;;;;3.92;100.00;100700.25;5223395;28;20029;-75
2023/03/06 08:34:08;;;;;;;144.25;51.50;;;;;;;4.16;100.00;100695.53;5223855;28;20033;-75
2023/03/06 08:36:39;;;;;;;113.85;42.55;;;;;;;4.29;100.00;100697.19;5222608;28;20477;-74
2023/03/06 08:39:09;;;;;;;75.15;28.58;;;;;;;4.46;100.00;100701.06;5205863;28;20208;-75
2023/03/06 08:41:41;;;;;;;77.38;32.13;;;;;;;4.24;100.00;100694.06;5205670;28;20017;-74
2023/03/06 08:44:12;;;;;;;78.50;30.13;;;;;;;4.08;100.00;100697.19;5221650;28;20362;-74
2023/03/06 08:46:42;;;;;;;74.43;30.45;;;;;;;3.96;100.00;100704.31;5223011;28;20110;-74
2023/03/06 08:49:13;;;;;;;72.85;28.67;;;;;;;3.93;100.00;100704.59;5205305;28;20025;-74
2023/03/06 08:51:43;;;;;;;70.00;27.77;;;;;;;3.95;100.00;100699.16;5222813;28;20032;-74
2023/03/06 08:54:14;;;;;;;78.25;29.23;;;;;;;3.97;100.00;100695.41;5225532;28;20118;-74
2023/03/06 08:56:44;;;;;;;71.65;26.48;;;;;;;4.04;100.00;100701.03;5192451;28;20029;-75
2023/03/06 08:59:15;;;;;;;65.55;26.20;;;;;;;3.98;100.00;100698.91;5227397;28;20559;-75
2023/03/06 09:01:45;;;;;;;71.13;27.55;;;;;;;4.02;100.00;100698.53;5226442;28;20025;-74
2023/03/06 09:04:16;;;;;;;73.25;27.50;;;;;;;4.05;100.00;100700.91;5227382;28;20021;-74
2023/03/06 09:06:46;;;;;;;69.55;27.55;;;;;;;4.11;100.00;100699.56;5226514;28;20118;-75
2023/03/06 09:09:17;;;;;;;67.93;25.67;;;;;;;4.01;100.00;100701.28;5227290;28;20017;-74
2023/03/06 09:11:47;;;;;;;66.93;26.15;;;;;;;4.11;100.00;100702.22;5226390;28;20035;-74
2023/03/06 09:14:18;;;;;;;71.03;26.48;;;;;;;4.15;100.00;100699.16;5226876;28;20036;-74
2023/03/06 09:16:48;;;;;;;65.07;26.48;;;;;;;4.16;100.00;100694.69;5208564;28;20036;-75
2023/03/06 09:19:19;;;;;;;73.25;27.88;;;;;;;4.18;100.00;100708.72;5226703;28;20020;-75
2023/03/06 09:21:49;;;;;;;69.97;30.40;;;;;;;4.17;100.00;100696.41;5208657;28;20028;-74
2023/03/06 09:24:20;;;;;;;73.75;28.65;;;;;;;4.16;100.00;100706.16;5208824;28;20033;-74
2023/03/06 09:26:50;;;;;;;79.32;30.35;;;;;;;4.17;100.00;100707.03;5208323;28;20030;-74
2023/03/06 09:29:21;;;;;;;72.32;28.65;;;;;;;4.19;100.00;100698.91;5208779;28;20025;-74
2023/03/06 09:31:51;;;;;;;70.65;27.75;;;;;;;4.20;100.00;100701.44;5226630;28;20025;-74
2023/03/06 09:34:22;;;;;;;61.92;27.00;;;;;;;4.24;100.00;100707.34;5226450;28;20447;-74
2023/03/06 09:36:52;;;;;;;61.08;23.85;;;;;;;4.30;100.00;100704.16;5225707;28;20033;-74
2023/03/06 09:39:24;;;;;;;58.55;23.75;;;;;;;4.33;100.00;100709.22;5226053;28;20035;-75
2023/03/06 09:41:57;;;;;;;64.85;25.48;;;;;;;4.36;100.00;100701.00;5226302;28;20155;-74
2023/03/06 09:44:32;;;;;;;58.53;24.25;;;;;;;4.37;100.00;100708.84;5218296;28;20048;-75
2023/03/06 09:47:33;;;;;;;54.15;22.83;;;;;;;4.48;100.00;100709.75;5203329;28;20032;-74
2023/03/06 09:50:20;;;;;;;59.15;26.02;;;;;;;4.50;100.00;100705.13;5226028;28;20032;-74
2023/03/06 09:53:25;;;;;;;63.35;24.73;;;;;;;4.54;100.00;100709.22;5226094;28;20033;-74
2023/03/06 09:56:01;;;;;;;180.40;73.97;;;;;;;4.56;100.00;100710.75;5207887;28;20082;-75
2023/03/06 09:58:40;;;;;;;53.85;22.65;;;;;;;4.57;100.00;100699.19;5225785;28;20401;-75
2023/03/06 10:01:31;;;;;;;200.43;82.35;;;;;;;4.65;100.00;100701.16;5226239;28;20033;-74
2023/03/06 10:04:34;;;;;;;171.32;73.65;;;;;;;4.70;100.00;100690.97;5214491;28;20028;-75
2023/03/06 10:07:13;;;;;;;91.47;40.85;;;;;;;4.81;100.00;100695.38;5211889;28;20021;-75
2023/03/06 10:10:03;;;;;;;68.10;29.35;;;;;;;4.91;100.00;100691.78;5225665;28;20166;-74
2023/03/06 10:12:41;;;;;;;54.05;23.83;;;;;;;4.99;100.00;100695.59;5217245;28;20079;-74
2023/03/06 10:15:15;;;;;;;48.00;20.40;;;;;;;5.02;100.00;100692.66;5208393;28;20033;-75
2023/03/06 10:17:46;;;;;;;57.15;24.88;;;;;;;5.10;100.00;100691.03;5224887;28;20053;-75
2023/03/06 10:20:22;;;;;;;57.08;22.67;;;;;;;5.19;100.00;100703.50;5207749;28;20033;-75
2023/03/06 10:23:09;;;;;;;57.17;23.77;;;;;;;5.25;100.00;100693.31;5225073;28;20024;-75
2023/03/06 10:25:45;;;;;;;50.63;20.08;;;;;;;5.23;100.00;100693.44;5225040;28;20033;-74
2023/03/06 10:28:20;;;;;;;47.97;19.25;;;;;;;5.28;100.00;100685.91;5225267;28;20021;-74
2023/03/06 10:31:01;;;;;;;51.53;20.55;;;;;;;5.28;100.00;100687.72;5207460;28;20021;-74
2023/03/06 10:33:52;;;;;;;47.00;19.90;;;;;;;5.29;100.00;100679.59;5225103;28;20033;-74
2023/03/06 10:36:27;;;;;;;46.88;20.23;;;;;;;5.40;100.00;100687.47;5212998;28;20066;-74
2023/03/06 10:38:58;;;;;;;47.53;19.90;;;;;;;5.49;100.00;100691.13;5225293;28;20032;-74
2023/03/06 10:41:31;;;;;;;54.47;22.45;;;;;;;5.59;100.00;100691.16;5224831;28;20021;-75
2023/03/06 10:44:01;;;;;;;53.78;21.38;;;;;;;5.62;100.00;100685.53;5203957;28;20169;-75
2023/03/06 10:46:36;;;;;;;50.35;20.70;;;;;;;5.68;100.00;100687.66;5215473;28;20029;-75
2023/03/06 10:49:27;;;;;;;51.20;21.73;;;;;;;5.80;100.00;100683.03;5224967;28;20037;-75
2023/03/06 10:52:04;;;;;;;50.00;20.98;;;;;;;5.76;100.00;100685.13;5224234;28;20074;-74
2023/03/06 10:54:37;;;;;;;46.97;20.23;;;;;;;5.81;100.00;100674.91;5207131;28;20025;-74
2023/03/06 10:57:28;;;;;;;46.55;20.48;;;;;;;6.01;100.00;100677.59;5206630;28;20104;-75
2023/03/06 11:00:03;;;;;;;48.20;20.33;;;;;;;6.01;100.00;100675.78;5224885;28;20078;-75
2023/03/06 11:02:39;;;;;;;46.08;20.70;;;;;;;6.13;100.00;100672.00;5206868;28;20737;-75
2023/03/06 11:05:29;;;;;;;47.10;20.10;;;;;;;6.19;100.00;100673.25;5224668;28;20082;-75
2023/03/06 11:07:59;;;;;;;50.30;20.67;;;;;;;6.33;100.00;100678.16;5224706;28;20029;-75
2023/03/06 11:10:30;;;;;;;44.53;22.45;;;;;;;6.31;100.00;100666.78;5206730;28;20398;-75
2023/03/06 11:13:06;;;;;;;51.05;22.52;;;;;;;6.37;100.00;100665.34;5224032;28;20047;-75
2023/03/06 11:15:37;;;;;;;44.95;19.45;;;;;;;6.41;100.00;100667.59;5224507;28;20077;-75
2023/03/06 11:18:07;;;;;;;47.35;19.65;;;;;;;6.42;100.00;100663.09;5214426;28;20439;-75
2023/03/06 11:20:54;;;;;;;38.80;18.73;;;;;;;6.35;100.00;100659.34;5225113;28;20025;-77
2023/03/06 11:23:45;;;;;;;40.90;17.98;;;;;;;6.24;100.00;100657.69;5206453;28;20033;-77
2023/03/06 11:26:15;;;;;;;38.83;17.85;;;;;;;6.16;100.00;100660.22;5206589;28;20025;-77
2023/03/06 11:29:07;;;;;;;43.53;18.40;;;;;;;6.44;100.00;100656.66;5224227;28;20032;-77
2023/03/06 11:31:50;;;;;;;37.58;17.58;;;;;;;6.83;100.00;100645.00;5212015;28;20032;-77